sensor_id;sensor_type;location;lat;lon;timestamp;temperature;humidity
48454;DHT22;34261;55.678;12.464;2023-05-23T00:01:08;16.50;91.10
48454;DHT22;34261;55.678;12.464;2023-05-23T00:03:34;16.40;91.30
48454;DHT22;34261;55.678;12.464;2023-05-23T00:06:00;16.30;91.50
48454;DHT22;34261;55.678;12.464;2023-05-23T00:08:26;16.30;91.70
48454;DHT22;34261;55.678;12.464;2023-05-23T00:10:51;16.20;92.00
48454;DHT22;34261;55.678;12.464;2023-05-23T00:13:17;16.20;92.20
48454;DHT22;34261;55.678;12.464;2023-05-23T00:15:43;16.10;92.30
48454;DHT22;34261;55.678;12.464;2023-05-23T00:18:09;16.10;92.40
48454;DHT22;34261;55.678;12.464;2023-05-23T00:20:39;16.10;92.60
48454;DHT22;34261;55.678;12.464;2023-05-23T00:23:06;16.00;92.90
48454;DHT22;34261;55.678;12.464;2023-05-23T00:25:32;16.00;93.00
48454;DHT22;34261;55.678;12.464;2023-05-23T00:27:58;16.00;93.20
48454;DHT22;34261;55.678;12.464;2023-05-23T00:30:25;15.90;93.20
48454;DHT22;34261;55.678;12.464;2023-05-23T00:32:50;15.90;93.40
48454;DHT22;34261;55.678;12.464;2023-05-23T00:35:21;15.90;93.50
48454;DHT22;34261;55.678;12.464;2023-05-23T00:37:47;15.90;93.60
48454;DHT22;34261;55.678;12.464;2023-05-23T00:40:19;15.80;93.60
48454;DHT22;34261;55.678;12.464;2023-05-23T00:42:45;15.80;93.60
48454;DHT22;34261;55.678;12.464;2023-05-23T00:45:11;15.80;93.60
48454;DHT22;34261;55.678;12.464;2023-05-23T00:47:40;15.70;93.60
48454;DHT22;34261;55.678;12.464;2023-05-23T00:50:07;15.80;93.80
48454;DHT22;34261;55.678;12.464;2023-05-23T00:52:33;15.80;93.90
48454;DHT22;34261;55.678;12.464;2023-05-23T00:54:58;15.70;94.10
48454;DHT22;34261;55.678;12.464;2023-05-23T00:57:25;15.60;94.30
48454;DHT22;34261;55.678;12.464;2023-05-23T00:59:50;15.60;94.50
48454;DHT22;34261;55.678;12.464;2023-05-23T01:02:16;15.50;94.80
48454;DHT22;34261;55.678;12.464;2023-05-23T01:04:42;15.50;94.80
48454;DHT22;34261;55.678;12.464;2023-05-23T01:07:09;15.50;95.00
48454;DHT22;34261;55.678;12.464;2023-05-23T01:09:35;15.50;95.00
48454;DHT22;34261;55.678;12.464;2023-05-23T01:12:13;15.40;95.10
48454;DHT22;34261;55.678;12.464;2023-05-23T01:14:44;15.40;95.10
48454;DHT22;34261;55.678;12.464;2023-05-23T01:17:16;15.40;95.00
48454;DHT22;34261;55.678;12.464;2023-05-23T01:20:03;15.40;95.00
48454;DHT22;34261;55.678;12.464;2023-05-23T01:22:41;15.40;95.10
48454;DHT22;34261;55.678;12.464;2023-05-23T01:27:47;15.30;95.20
48454;DHT22;34261;55.678;12.464;2023-05-23T01:30:15;15.30;95.50
48454;DHT22;34261;55.678;12.464;2023-05-23T01:32:42;15.30;95.60
48454;DHT22;34261;55.678;12.464;2023-05-23T01:35:07;15.20;95.80
48454;DHT22;34261;55.678;12.464;2023-05-23T01:37:33;15.30;96.00
48454;DHT22;34261;55.678;12.464;2023-05-23T01:39:59;15.20;96.10
48454;DHT22;34261;55.678;12.464;2023-05-23T01:42:24;15.20;96.20
48454;DHT22;34261;55.678;12.464;2023-05-23T01:44:52;15.20;96.30
48454;DHT22;34261;55.678;12.464;2023-05-23T01:47:18;15.10;96.40
48454;DHT22;34261;55.678;12.464;2023-05-23T01:49:46;15.00;96.50
48454;DHT22;34261;55.678;12.464;2023-05-23T01:52:12;15.00;96.70
48454;DHT22;34261;55.678;12.464;2023-05-23T01:54:37;15.00;96.70
48454;DHT22;34261;55.678;12.464;2023-05-23T01:57:06;15.00;96.80
48454;DHT22;34261;55.678;12.464;2023-05-23T01:59:32;15.00;96.90
48454;DHT22;34261;55.678;12.464;2023-05-23T02:01:57;15.00;97.00
48454;DHT22;34261;55.678;12.464;2023-05-23T02:04:23;14.90;97.00
48454;DHT22;34261;55.678;12.464;2023-05-23T02:06:48;14.90;97.00
48454;DHT22;34261;55.678;12.464;2023-05-23T02:09:13;14.90;97.10
48454;DHT22;34261;55.678;12.464;2023-05-23T02:11:39;14.90;97.00
48454;DHT22;34261;55.678;12.464;2023-05-23T02:14:05;14.90;97.10
48454;DHT22;34261;55.678;12.464;2023-05-23T02:16:31;14.90;97.20
48454;DHT22;34261;55.678;12.464;2023-05-23T02:18:57;14.90;97.40
48454;DHT22;34261;55.678;12.464;2023-05-23T02:21:23;14.90;97.30
48454;DHT22;34261;55.678;12.464;2023-05-23T02:23:49;14.90;97.20
48454;DHT22;34261;55.678;12.464;2023-05-23T02:26:14;14.90;97.20
48454;DHT22;34261;55.678;12.464;2023-05-23T02:28:40;14.80;97.20
48454;DHT22;34261;55.678;12.464;2023-05-23T02:31:06;14.80;97.30
48454;DHT22;34261;55.678;12.464;2023-05-23T02:33:31;14.70;97.60
48454;DHT22;34261;55.678;12.464;2023-05-23T02:35:56;14.50;97.80
48454;DHT22;34261;55.678;12.464;2023-05-23T02:38:22;14.40;98.10
48454;DHT22;34261;55.678;12.464;2023-05-23T02:40:47;14.40;98.50
48454;DHT22;34261;55.678;12.464;2023-05-23T02:43:14;14.40;98.40
48454;DHT22;34261;55.678;12.464;2023-05-23T02:45:40;14.50;98.40
48454;DHT22;34261;55.678;12.464;2023-05-23T02:48:05;14.50;98.60
48454;DHT22;34261;55.678;12.464;2023-05-23T02:50:31;14.30;98.60
48454;DHT22;34261;55.678;12.464;2023-05-23T02:52:56;14.40;98.90
48454;DHT22;34261;55.678;12.464;2023-05-23T02:55:21;14.40;98.80
48454;DHT22;34261;55.678;12.464;2023-05-23T02:57:47;14.40;98.60
48454;DHT22;34261;55.678;12.464;2023-05-23T03:00:12;14.50;98.60
48454;DHT22;34261;55.678;12.464;2023-05-23T03:02:39;14.50;98.60
48454;DHT22;34261;55.678;12.464;2023-05-23T03:05:05;14.50;98.90
48454;DHT22;34261;55.678;12.464;2023-05-23T03:07:31;14.50;99.00
48454;DHT22;34261;55.678;12.464;2023-05-23T03:09:58;14.40;99.00
48454;DHT22;34261;55.678;12.464;2023-05-23T03:12:24;14.40;99.10
48454;DHT22;34261;55.678;12.464;2023-05-23T03:14:49;14.40;99.20
48454;DHT22;34261;55.678;12.464;2023-05-23T03:17:15;14.40;99.30
48454;DHT22;34261;55.678;12.464;2023-05-23T03:19:40;14.30;99.50
48454;DHT22;34261;55.678;12.464;2023-05-23T03:22:05;14.30;99.60
48454;DHT22;34261;55.678;12.464;2023-05-23T03:24:31;14.30;99.80
48454;DHT22;34261;55.678;12.464;2023-05-23T03:26:57;14.30;99.90
48454;DHT22;34261;55.678;12.464;2023-05-23T03:29:22;14.40;99.90
48454;DHT22;34261;55.678;12.464;2023-05-23T03:31:48;14.40;99.90
48454;DHT22;34261;55.678;12.464;2023-05-23T03:34:13;14.40;99.90
48454;DHT22;34261;55.678;12.464;2023-05-23T03:36:38;14.50;99.90
48454;DHT22;34261;55.678;12.464;2023-05-23T03:39:04;14.50;99.90
48454;DHT22;34261;55.678;12.464;2023-05-23T03:41:30;14.50;99.90
48454;DHT22;34261;55.678;12.464;2023-05-23T03:43:55;14.60;99.90
48454;DHT22;34261;55.678;12.464;2023-05-23T03:46:21;14.60;99.90
48454;DHT22;34261;55.678;12.464;2023-05-23T03:48:46;14.60;99.90
48454;DHT22;34261;55.678;12.464;2023-05-23T03:51:12;14.60;99.90
48454;DHT22;34261;55.678;12.464;2023-05-23T03:53:37;14.60;99.90
48454;DHT22;34261;55.678;12.464;2023-05-23T03:56:03;14.70;99.90
48454;DHT22;34261;55.678;12.464;2023-05-23T03:58:28;14.70;99.90
48454;DHT22;34261;55.678;12.464;2023-05-23T04:00:54;14.80;99.90
48454;DHT22;34261;55.678;12.464;2023-05-23T04:03:19;14.80;99.90
48454;DHT22;34261;55.678;12.464;2023-05-23T04:05:45;14.90;99.90
48454;DHT22;34261;55.678;12.464;2023-05-23T04:08:10;14.90;99.60
48454;DHT22;34261;55.678;12.464;2023-05-23T04:10:36;14.90;99.90
48454;DHT22;34261;55.678;12.464;2023-05-23T04:13:01;14.90;99.90
48454;DHT22;34261;55.678;12.464;2023-05-23T04:15:27;14.90;99.90
48454;DHT22;34261;55.678;12.464;2023-05-23T04:17:52;14.90;99.90
48454;DHT22;34261;55.678;12.464;2023-05-23T04:20:18;14.90;99.90
48454;DHT22;34261;55.678;12.464;2023-05-23T04:22:44;14.80;99.90
48454;DHT22;34261;55.678;12.464;2023-05-23T04:25:09;14.70;99.90
48454;DHT22;34261;55.678;12.464;2023-05-23T04:27:35;14.60;99.90
48454;DHT22;34261;55.678;12.464;2023-05-23T04:30:05;14.60;99.90
48454;DHT22;34261;55.678;12.464;2023-05-23T04:32:31;14.60;99.90
48454;DHT22;34261;55.678;12.464;2023-05-23T04:34:57;14.60;99.90
48454;DHT22;34261;55.678;12.464;2023-05-23T04:37:23;14.50;99.90
48454;DHT22;34261;55.678;12.464;2023-05-23T04:39:50;14.50;99.90
48454;DHT22;34261;55.678;12.464;2023-05-23T04:42:19;14.50;99.90
48454;DHT22;34261;55.678;12.464;2023-05-23T04:44:52;14.50;99.90
48454;DHT22;34261;55.678;12.464;2023-05-23T04:47:21;14.50;99.90
48454;DHT22;34261;55.678;12.464;2023-05-23T04:49:46;14.50;99.90
48454;DHT22;34261;55.678;12.464;2023-05-23T04:52:12;14.50;99.90
48454;DHT22;34261;55.678;12.464;2023-05-23T04:54:37;14.60;99.90
48454;DHT22;34261;55.678;12.464;2023-05-23T04:57:04;14.60;99.90
48454;DHT22;34261;55.678;12.464;2023-05-23T04:59:30;14.60;99.90
48454;DHT22;34261;55.678;12.464;2023-05-23T05:01:56;14.60;99.90
48454;DHT22;34261;55.678;12.464;2023-05-23T05:04:21;14.70;99.90
48454;DHT22;34261;55.678;12.464;2023-05-23T05:06:47;14.70;99.90
48454;DHT22;34261;55.678;12.464;2023-05-23T05:09:12;14.70;99.90
48454;DHT22;34261;55.678;12.464;2023-05-23T05:11:38;14.70;99.90
48454;DHT22;34261;55.678;12.464;2023-05-23T05:14:03;14.80;99.90
48454;DHT22;34261;55.678;12.464;2023-05-23T05:16:29;14.80;99.90
48454;DHT22;34261;55.678;12.464;2023-05-23T05:18:54;14.80;99.90
48454;DHT22;34261;55.678;12.464;2023-05-23T05:21:22;14.90;99.90
48454;DHT22;34261;55.678;12.464;2023-05-23T05:23:48;14.90;99.90
48454;DHT22;34261;55.678;12.464;2023-05-23T05:26:13;14.90;99.90
48454;DHT22;34261;55.678;12.464;2023-05-23T05:28:39;15.00;99.90
48454;DHT22;34261;55.678;12.464;2023-05-23T05:31:05;15.00;99.90
48454;DHT22;34261;55.678;12.464;2023-05-23T05:33:30;15.10;99.90
48454;DHT22;34261;55.678;12.464;2023-05-23T05:36:04;15.10;99.90
48454;DHT22;34261;55.678;12.464;2023-05-23T05:38:30;15.20;99.90
48454;DHT22;34261;55.678;12.464;2023-05-23T05:40:56;15.30;99.90
48454;DHT22;34261;55.678;12.464;2023-05-23T05:43:21;15.30;99.90
48454;DHT22;34261;55.678;12.464;2023-05-23T05:45:47;15.40;99.90
48454;DHT22;34261;55.678;12.464;2023-05-23T05:48:12;15.40;99.90
48454;DHT22;34261;55.678;12.464;2023-05-23T05:50:38;15.50;99.90
48454;DHT22;34261;55.678;12.464;2023-05-23T05:53:03;15.60;99.90
48454;DHT22;34261;55.678;12.464;2023-05-23T05:55:29;15.70;99.90
48454;DHT22;34261;55.678;12.464;2023-05-23T05:57:54;15.70;99.90
48454;DHT22;34261;55.678;12.464;2023-05-23T06:00:20;15.60;99.90
48454;DHT22;34261;55.678;12.464;2023-05-23T06:02:46;15.60;99.90
48454;DHT22;34261;55.678;12.464;2023-05-23T06:05:11;15.60;99.90
48454;DHT22;34261;55.678;12.464;2023-05-23T06:07:38;15.70;99.90
48454;DHT22;34261;55.678;12.464;2023-05-23T06:10:04;15.60;99.90
48454;DHT22;34261;55.678;12.464;2023-05-23T06:12:30;15.70;99.90
48454;DHT22;34261;55.678;12.464;2023-05-23T06:14:55;15.80;99.90
48454;DHT22;34261;55.678;12.464;2023-05-23T06:17:20;15.80;99.90
48454;DHT22;34261;55.678;12.464;2023-05-23T06:19:46;15.80;99.90
48454;DHT22;34261;55.678;12.464;2023-05-23T06:22:11;15.90;99.90
48454;DHT22;34261;55.678;12.464;2023-05-23T06:24:37;15.90;99.90
48454;DHT22;34261;55.678;12.464;2023-05-23T06:27:02;16.00;99.90
48454;DHT22;34261;55.678;12.464;2023-05-23T06:29:28;16.00;99.90
48454;DHT22;34261;55.678;12.464;2023-05-23T06:31:55;16.00;99.90
48454;DHT22;34261;55.678;12.464;2023-05-23T06:34:20;16.00;99.90
48454;DHT22;34261;55.678;12.464;2023-05-23T06:36:46;16.10;99.90
48454;DHT22;34261;55.678;12.464;2023-05-23T06:39:12;16.10;99.90
48454;DHT22;34261;55.678;12.464;2023-05-23T06:41:38;16.10;99.90
48454;DHT22;34261;55.678;12.464;2023-05-23T06:44:03;16.10;99.90
48454;DHT22;34261;55.678;12.464;2023-05-23T06:46:29;15.90;99.90
48454;DHT22;34261;55.678;12.464;2023-05-23T06:48:55;15.80;99.90
48454;DHT22;34261;55.678;12.464;2023-05-23T06:51:20;15.80;99.90
48454;DHT22;34261;55.678;12.464;2023-05-23T06:53:46;15.70;99.90
48454;DHT22;34261;55.678;12.464;2023-05-23T06:56:11;15.70;99.90
48454;DHT22;34261;55.678;12.464;2023-05-23T06:58:37;15.70;99.90
48454;DHT22;34261;55.678;12.464;2023-05-23T07:01:02;15.70;99.90
48454;DHT22;34261;55.678;12.464;2023-05-23T07:03:27;15.80;99.90
48454;DHT22;34261;55.678;12.464;2023-05-23T07:05:53;15.70;99.90
48454;DHT22;34261;55.678;12.464;2023-05-23T07:08:18;15.70;99.90
48454;DHT22;34261;55.678;12.464;2023-05-23T07:10:44;15.80;99.90
48454;DHT22;34261;55.678;12.464;2023-05-23T07:13:09;15.70;99.90
48454;DHT22;34261;55.678;12.464;2023-05-23T07:15:35;15.70;99.90
48454;DHT22;34261;55.678;12.464;2023-05-23T07:18:00;15.70;99.90
48454;DHT22;34261;55.678;12.464;2023-05-23T07:20:26;15.70;99.90
48454;DHT22;34261;55.678;12.464;2023-05-23T07:22:51;15.70;99.90
48454;DHT22;34261;55.678;12.464;2023-05-23T07:25:17;15.80;99.90
48454;DHT22;34261;55.678;12.464;2023-05-23T07:27:42;15.80;99.90
48454;DHT22;34261;55.678;12.464;2023-05-23T07:30:08;15.80;99.90
48454;DHT22;34261;55.678;12.464;2023-05-23T07:32:36;15.90;99.90
48454;DHT22;34261;55.678;12.464;2023-05-23T07:35:02;15.90;99.90
48454;DHT22;34261;55.678;12.464;2023-05-23T07:37:27;15.90;99.90
48454;DHT22;34261;55.678;12.464;2023-05-23T07:39:53;15.90;99.90
48454;DHT22;34261;55.678;12.464;2023-05-23T07:42:18;15.90;99.90
48454;DHT22;34261;55.678;12.464;2023-05-23T07:44:44;15.90;99.90
48454;DHT22;34261;55.678;12.464;2023-05-23T07:47:09;15.90;99.90
48454;DHT22;34261;55.678;12.464;2023-05-23T07:49:35;15.90;99.90
48454;DHT22;34261;55.678;12.464;2023-05-23T07:52:00;15.90;99.90
48454;DHT22;34261;55.678;12.464;2023-05-23T07:54:26;15.90;99.90
48454;DHT22;34261;55.678;12.464;2023-05-23T07:56:51;16.00;99.90
48454;DHT22;34261;55.678;12.464;2023-05-23T07:59:17;16.00;99.90
48454;DHT22;34261;55.678;12.464;2023-05-23T08:01:42;16.00;99.90
48454;DHT22;34261;55.678;12.464;2023-05-23T08:04:08;16.00;99.90
48454;DHT22;34261;55.678;12.464;2023-05-23T08:06:34;16.00;99.90
48454;DHT22;34261;55.678;12.464;2023-05-23T08:09:00;16.00;99.90
48454;DHT22;34261;55.678;12.464;2023-05-23T08:11:25;15.90;99.90
48454;DHT22;34261;55.678;12.464;2023-05-23T08:13:53;15.90;99.90
48454;DHT22;34261;55.678;12.464;2023-05-23T08:16:18;15.90;99.90
48454;DHT22;34261;55.678;12.464;2023-05-23T08:18:43;15.90;99.90
48454;DHT22;34261;55.678;12.464;2023-05-23T08:21:09;15.90;99.90
48454;DHT22;34261;55.678;12.464;2023-05-23T08:23:34;16.00;99.90
48454;DHT22;34261;55.678;12.464;2023-05-23T08:26:00;16.10;99.90
48454;DHT22;34261;55.678;12.464;2023-05-23T08:28:25;16.00;99.90
48454;DHT22;34261;55.678;12.464;2023-05-23T08:30:51;16.10;99.90
48454;DHT22;34261;55.678;12.464;2023-05-23T08:33:18;16.20;99.90
48454;DHT22;34261;55.678;12.464;2023-05-23T08:35:43;16.10;99.90
48454;DHT22;34261;55.678;12.464;2023-05-23T08:38:09;16.30;99.90
48454;DHT22;34261;55.678;12.464;2023-05-23T08:40:34;16.30;99.90
48454;DHT22;34261;55.678;12.464;2023-05-23T08:43:00;16.40;99.90
48454;DHT22;34261;55.678;12.464;2023-05-23T08:45:26;16.40;99.90
48454;DHT22;34261;55.678;12.464;2023-05-23T08:47:53;16.50;99.90
48454;DHT22;34261;55.678;12.464;2023-05-23T08:50:19;16.50;99.90
48454;DHT22;34261;55.678;12.464;2023-05-23T08:52:53;16.60;99.90
48454;DHT22;34261;55.678;12.464;2023-05-23T08:55:19;16.50;99.90
48454;DHT22;34261;55.678;12.464;2023-05-23T08:57:45;16.50;99.90
48454;DHT22;34261;55.678;12.464;2023-05-23T09:00:11;16.50;99.90
48454;DHT22;34261;55.678;12.464;2023-05-23T09:02:43;16.40;99.90
48454;DHT22;34261;55.678;12.464;2023-05-23T09:05:09;16.50;99.90
48454;DHT22;34261;55.678;12.464;2023-05-23T09:07:35;16.50;99.90
48454;DHT22;34261;55.678;12.464;2023-05-23T09:10:02;16.50;99.90
48454;DHT22;34261;55.678;12.464;2023-05-23T09:12:27;16.50;99.90
48454;DHT22;34261;55.678;12.464;2023-05-23T09:14:53;16.40;99.90
48454;DHT22;34261;55.678;12.464;2023-05-23T09:17:19;16.40;99.90
48454;DHT22;34261;55.678;12.464;2023-05-23T09:19:45;16.30;99.90
48454;DHT22;34261;55.678;12.464;2023-05-23T09:22:11;16.30;99.90
48454;DHT22;34261;55.678;12.464;2023-05-23T09:24:37;16.20;99.90
48454;DHT22;34261;55.678;12.464;2023-05-23T09:27:06;16.20;99.90
48454;DHT22;34261;55.678;12.464;2023-05-23T09:29:31;16.20;99.90
48454;DHT22;34261;55.678;12.464;2023-05-23T09:31:59;16.10;99.90
48454;DHT22;34261;55.678;12.464;2023-05-23T09:34:25;16.00;99.90
48454;DHT22;34261;55.678;12.464;2023-05-23T09:36:53;16.00;99.90
48454;DHT22;34261;55.678;12.464;2023-05-23T09:39:19;16.00;99.90
48454;DHT22;34261;55.678;12.464;2023-05-23T09:41:47;16.00;99.90
48454;DHT22;34261;55.678;12.464;2023-05-23T09:44:12;16.00;99.90
48454;DHT22;34261;55.678;12.464;2023-05-23T09:46:38;16.00;99.90
48454;DHT22;34261;55.678;12.464;2023-05-23T09:49:13;16.00;99.90
48454;DHT22;34261;55.678;12.464;2023-05-23T09:51:39;15.90;99.90
48454;DHT22;34261;55.678;12.464;2023-05-23T09:54:04;16.00;99.90
48454;DHT22;34261;55.678;12.464;2023-05-23T09:56:30;15.90;99.90
48454;DHT22;34261;55.678;12.464;2023-05-23T09:58:56;16.00;99.90
48454;DHT22;34261;55.678;12.464;2023-05-23T10:01:22;16.10;99.90
48454;DHT22;34261;55.678;12.464;2023-05-23T10:03:50;16.20;99.90
48454;DHT22;34261;55.678;12.464;2023-05-23T10:08:45;16.30;99.90
48454;DHT22;34261;55.678;12.464;2023-05-23T10:13:43;16.40;99.90
48454;DHT22;34261;55.678;12.464;2023-05-23T10:18:38;16.60;99.90
48454;DHT22;34261;55.678;12.464;2023-05-23T10:21:06;16.50;99.90
48454;DHT22;34261;55.678;12.464;2023-05-23T10:23:36;16.50;99.90
48454;DHT22;34261;55.678;12.464;2023-05-23T10:26:05;16.40;99.90
48454;DHT22;34261;55.678;12.464;2023-05-23T10:28:31;16.40;99.90
48454;DHT22;34261;55.678;12.464;2023-05-23T10:30:56;16.50;99.90
48454;DHT22;34261;55.678;12.464;2023-05-23T10:33:23;16.40;99.90
48454;DHT22;34261;55.678;12.464;2023-05-23T10:35:51;16.40;99.90
48454;DHT22;34261;55.678;12.464;2023-05-23T10:45:56;16.50;99.90
48454;DHT22;34261;55.678;12.464;2023-05-23T10:48:31;16.60;99.90
48454;DHT22;34261;55.678;12.464;2023-05-23T10:51:02;16.70;99.90
48454;DHT22;34261;55.678;12.464;2023-05-23T10:53:30;16.80;99.90
48454;DHT22;34261;55.678;12.464;2023-05-23T10:55:56;16.90;99.90
48454;DHT22;34261;55.678;12.464;2023-05-23T10:58:22;17.00;99.90
48454;DHT22;34261;55.678;12.464;2023-05-23T11:03:17;17.00;99.90
48454;DHT22;34261;55.678;12.464;2023-05-23T11:05:52;17.10;99.90
48454;DHT22;34261;55.678;12.464;2023-05-23T11:08:18;17.20;99.90
48454;DHT22;34261;55.678;12.464;2023-05-23T11:10:50;17.20;99.90
48454;DHT22;34261;55.678;12.464;2023-05-23T11:13:16;17.40;99.90
48454;DHT22;34261;55.678;12.464;2023-05-23T11:15:41;17.40;99.90
48454;DHT22;34261;55.678;12.464;2023-05-23T11:18:09;17.30;99.90
48454;DHT22;34261;55.678;12.464;2023-05-23T11:20:36;17.30;99.90
48454;DHT22;34261;55.678;12.464;2023-05-23T11:23:02;17.40;99.90
48454;DHT22;34261;55.678;12.464;2023-05-23T11:25:47;17.50;99.90
48454;DHT22;34261;55.678;12.464;2023-05-23T11:28:13;17.50;99.90
48454;DHT22;34261;55.678;12.464;2023-05-23T11:30:39;17.40;99.90
48454;DHT22;34261;55.678;12.464;2023-05-23T11:33:08;17.50;99.90
48454;DHT22;34261;55.678;12.464;2023-05-23T11:35:36;17.50;99.90
48454;DHT22;34261;55.678;12.464;2023-05-23T11:38:03;17.40;99.90
48454;DHT22;34261;55.678;12.464;2023-05-23T11:42:57;17.30;99.90
48454;DHT22;34261;55.678;12.464;2023-05-23T11:45:24;17.30;99.90
48454;DHT22;34261;55.678;12.464;2023-05-23T11:47:50;17.20;99.90
48454;DHT22;34261;55.678;12.464;2023-05-23T11:50:15;17.20;99.90
48454;DHT22;34261;55.678;12.464;2023-05-23T11:52:41;17.20;99.90
48454;DHT22;34261;55.678;12.464;2023-05-23T11:55:09;17.20;99.90
48454;DHT22;34261;55.678;12.464;2023-05-23T11:57:38;17.20;99.90
48454;DHT22;34261;55.678;12.464;2023-05-23T12:00:07;17.10;99.90
48454;DHT22;34261;55.678;12.464;2023-05-23T12:02:39;17.00;99.90
48454;DHT22;34261;55.678;12.464;2023-05-23T12:05:06;17.10;99.90
48454;DHT22;34261;55.678;12.464;2023-05-23T12:07:32;17.10;99.90
48454;DHT22;34261;55.678;12.464;2023-05-23T12:09:57;17.10;99.90
48454;DHT22;34261;55.678;12.464;2023-05-23T12:12:23;17.10;99.90
48454;DHT22;34261;55.678;12.464;2023-05-23T12:14:48;16.90;99.90
48454;DHT22;34261;55.678;12.464;2023-05-23T12:17:14;16.80;99.90
48454;DHT22;34261;55.678;12.464;2023-05-23T12:19:44;16.70;99.90
48454;DHT22;34261;55.678;12.464;2023-05-23T12:22:09;16.60;99.90
48454;DHT22;34261;55.678;12.464;2023-05-23T12:24:35;16.60;99.90
48454;DHT22;34261;55.678;12.464;2023-05-23T12:27:01;16.50;99.90
48454;DHT22;34261;55.678;12.464;2023-05-23T12:29:31;16.50;99.90
48454;DHT22;34261;55.678;12.464;2023-05-23T12:31:57;16.50;99.90
48454;DHT22;34261;55.678;12.464;2023-05-23T12:34:22;16.50;99.90
48454;DHT22;34261;55.678;12.464;2023-05-23T12:36:48;16.40;99.90
48454;DHT22;34261;55.678;12.464;2023-05-23T12:39:13;16.40;99.90
48454;DHT22;34261;55.678;12.464;2023-05-23T12:41:43;16.20;99.90
48454;DHT22;34261;55.678;12.464;2023-05-23T12:44:09;16.20;99.90
48454;DHT22;34261;55.678;12.464;2023-05-23T12:46:34;16.10;99.90
48454;DHT22;34261;55.678;12.464;2023-05-23T12:49:00;16.10;99.90
48454;DHT22;34261;55.678;12.464;2023-05-23T12:51:25;16.00;99.90
48454;DHT22;34261;55.678;12.464;2023-05-23T12:53:51;15.90;99.90
48454;DHT22;34261;55.678;12.464;2023-05-23T12:56:19;15.80;99.90
48454;DHT22;34261;55.678;12.464;2023-05-23T12:58:45;15.80;99.90
48454;DHT22;34261;55.678;12.464;2023-05-23T13:01:10;15.80;99.90
48454;DHT22;34261;55.678;12.464;2023-05-23T13:03:36;15.80;99.90
48454;DHT22;34261;55.678;12.464;2023-05-23T13:06:01;15.80;99.90
48454;DHT22;34261;55.678;12.464;2023-05-23T13:08:27;15.70;99.90
48454;DHT22;34261;55.678;12.464;2023-05-23T13:10:53;15.60;99.90
48454;DHT22;34261;55.678;12.464;2023-05-23T13:13:19;15.60;99.90
48454;DHT22;34261;55.678;12.464;2023-05-23T13:15:44;15.50;99.90
48454;DHT22;34261;55.678;12.464;2023-05-23T13:18:10;15.50;99.90
48454;DHT22;34261;55.678;12.464;2023-05-23T13:20:35;15.30;99.90
48454;DHT22;34261;55.678;12.464;2023-05-23T13:23:03;15.40;99.90
48454;DHT22;34261;55.678;12.464;2023-05-23T13:25:28;15.30;99.90
48454;DHT22;34261;55.678;12.464;2023-05-23T13:27:54;15.20;99.90
48454;DHT22;34261;55.678;12.464;2023-05-23T13:30:21;15.20;99.90
48454;DHT22;34261;55.678;12.464;2023-05-23T13:32:46;15.30;99.90
48454;DHT22;34261;55.678;12.464;2023-05-23T13:35:13;15.30;99.90
48454;DHT22;34261;55.678;12.464;2023-05-23T13:37:38;15.30;99.90
48454;DHT22;34261;55.678;12.464;2023-05-23T13:40:09;15.40;99.90
48454;DHT22;34261;55.678;12.464;2023-05-23T13:42:36;15.40;99.90
48454;DHT22;34261;55.678;12.464;2023-05-23T13:45:07;15.40;99.90
48454;DHT22;34261;55.678;12.464;2023-05-23T13:47:32;15.40;99.90
48454;DHT22;34261;55.678;12.464;2023-05-23T13:49:58;15.30;99.90
48454;DHT22;34261;55.678;12.464;2023-05-23T13:52:24;15.30;99.90
48454;DHT22;34261;55.678;12.464;2023-05-23T13:54:49;15.30;99.90
48454;DHT22;34261;55.678;12.464;2023-05-23T13:57:15;15.40;99.90
48454;DHT22;34261;55.678;12.464;2023-05-23T13:59:40;15.40;99.90
48454;DHT22;34261;55.678;12.464;2023-05-23T14:02:06;15.40;99.90
48454;DHT22;34261;55.678;12.464;2023-05-23T14:04:34;15.40;99.90
48454;DHT22;34261;55.678;12.464;2023-05-23T14:07:00;15.50;99.90
48454;DHT22;34261;55.678;12.464;2023-05-23T14:09:25;15.30;99.90
48454;DHT22;34261;55.678;12.464;2023-05-23T14:11:51;15.30;99.90
48454;DHT22;34261;55.678;12.464;2023-05-23T14:14:17;15.40;99.90
48454;DHT22;34261;55.678;12.464;2023-05-23T14:16:42;15.30;99.90
48454;DHT22;34261;55.678;12.464;2023-05-23T14:19:08;15.10;99.90
48454;DHT22;34261;55.678;12.464;2023-05-23T14:21:33;15.00;99.90
48454;DHT22;34261;55.678;12.464;2023-05-23T14:23:59;15.00;99.90
48454;DHT22;34261;55.678;12.464;2023-05-23T14:26:24;14.90;99.90
48454;DHT22;34261;55.678;12.464;2023-05-23T14:28:51;14.80;99.90
48454;DHT22;34261;55.678;12.464;2023-05-23T14:31:16;14.70;99.90
48454;DHT22;34261;55.678;12.464;2023-05-23T14:33:42;14.70;99.90
48454;DHT22;34261;55.678;12.464;2023-05-23T14:36:10;14.70;99.90
48454;DHT22;34261;55.678;12.464;2023-05-23T14:38:35;14.70;99.90
48454;DHT22;34261;55.678;12.464;2023-05-23T14:41:01;14.80;99.90
48454;DHT22;34261;55.678;12.464;2023-05-23T14:43:26;14.80;99.90
48454;DHT22;34261;55.678;12.464;2023-05-23T14:45:53;14.80;99.90
48454;DHT22;34261;55.678;12.464;2023-05-23T14:48:19;14.80;99.90
48454;DHT22;34261;55.678;12.464;2023-05-23T14:50:45;14.90;99.90
48454;DHT22;34261;55.678;12.464;2023-05-23T14:53:10;14.90;99.90
48454;DHT22;34261;55.678;12.464;2023-05-23T14:55:37;14.90;99.90
48454;DHT22;34261;55.678;12.464;2023-05-23T14:58:04;14.90;99.90
48454;DHT22;34261;55.678;12.464;2023-05-23T15:00:30;14.90;99.90
48454;DHT22;34261;55.678;12.464;2023-05-23T15:02:56;14.80;99.90
48454;DHT22;34261;55.678;12.464;2023-05-23T15:05:22;14.70;99.90
48454;DHT22;34261;55.678;12.464;2023-05-23T15:07:48;14.60;99.90
48454;DHT22;34261;55.678;12.464;2023-05-23T15:10:13;14.50;99.90
48454;DHT22;34261;55.678;12.464;2023-05-23T15:12:40;14.50;99.90
48454;DHT22;34261;55.678;12.464;2023-05-23T15:15:06;14.50;99.90
48454;DHT22;34261;55.678;12.464;2023-05-23T15:17:32;14.50;99.90
48454;DHT22;34261;55.678;12.464;2023-05-23T15:19:58;14.50;99.90
48454;DHT22;34261;55.678;12.464;2023-05-23T15:22:29;14.50;99.90
48454;DHT22;34261;55.678;12.464;2023-05-23T15:24:57;14.50;99.90
48454;DHT22;34261;55.678;12.464;2023-05-23T15:27:22;14.40;99.90
48454;DHT22;34261;55.678;12.464;2023-05-23T15:29:48;14.30;99.90
48454;DHT22;34261;55.678;12.464;2023-05-23T15:32:14;14.30;99.90